createdAt,value
2018-02-21T00:00:23.056Z,97.00
2018-02-21T00:02:50.639Z,97.10
2018-02-21T00:05:19.022Z,96.90
2018-02-21T00:07:46.607Z,96.90
2018-02-21T00:10:14.968Z,96.50
2018-02-21T00:12:42.550Z,96.50
2018-02-21T00:15:10.162Z,96.30
2018-02-21T00:17:37.736Z,96.50
2018-02-21T00:20:05.338Z,96.30
2018-02-21T00:22:32.956Z,96.20
2018-02-21T00:25:01.334Z,95.80
2018-02-21T00:27:28.919Z,95.80
2018-02-21T00:29:56.522Z,96.10
2018-02-21T00:32:24.109Z,96.10
2018-02-21T00:34:51.685Z,95.90
2018-02-21T00:37:19.294Z,95.60
2018-02-21T00:39:46.882Z,95.90
2018-02-21T00:42:15.263Z,95.60
2018-02-21T00:44:42.862Z,95.60
2018-02-21T00:47:11.220Z,95.40
2018-02-21T00:49:38.836Z,95.40
2018-02-21T00:52:06.473Z,95.70
2018-02-21T00:54:34.029Z,95.70
2018-02-21T00:57:01.620Z,95.70
2018-02-21T00:59:29.204Z,95.60
2018-02-21T01:01:57.591Z,95.30
2018-02-21T01:04:25.172Z,95.30
2018-02-21T01:06:53.533Z,95.50
2018-02-21T01:09:21.133Z,95.40
2018-02-21T01:11:49.554Z,95.50
2018-02-21T01:14:17.156Z,95.50
2018-02-21T01:16:45.501Z,95.30
2018-02-21T01:19:13.101Z,95.30
2018-02-21T01:21:41.477Z,95.50
2018-02-21T01:24:09.076Z,95.50
2018-02-21T01:26:36.660Z,95.60
2018-02-21T01:29:04.259Z,95.60
2018-02-21T01:31:31.833Z,95.70
2018-02-21T01:34:00.204Z,95.70
2018-02-21T01:36:27.776Z,95.70
2018-02-21T01:38:55.373Z,95.50
2018-02-21T01:41:23.752Z,95.60
2018-02-21T01:43:51.360Z,95.60
2018-02-21T01:46:18.991Z,96.00
2018-02-21T01:48:46.612Z,95.90
2018-02-21T01:51:14.228Z,95.90
2018-02-21T01:53:41.804Z,96.00
2018-02-21T01:56:09.408Z,95.80
2018-02-21T01:58:37.739Z,95.60
2018-02-21T02:01:05.320Z,95.60
2018-02-21T02:03:33.668Z,95.50
2018-02-21T02:06:01.247Z,95.50
2018-02-21T02:08:28.836Z,95.70
2018-02-21T02:10:56.421Z,95.90
2018-02-21T02:13:24.028Z,95.90
2018-02-21T02:15:51.640Z,95.90
2018-02-21T02:18:19.255Z,96.00
2018-02-21T02:20:47.629Z,96.20
2018-02-21T02:23:15.227Z,96.20
2018-02-21T02:25:42.805Z,96.00
2018-02-21T02:28:10.413Z,96.10
2018-02-21T02:30:37.991Z,96.10
2018-02-21T02:33:05.581Z,96.30
2018-02-21T02:35:33.170Z,96.20
2018-02-21T02:38:00.805Z,96.10
2018-02-21T02:40:28.388Z,95.90
2018-02-21T02:42:55.995Z,95.90
2018-02-21T02:45:23.585Z,95.90
2018-02-21T02:47:51.179Z,96.00
2018-02-21T02:50:19.534Z,96.10
2018-02-21T02:52:47.153Z,96.10
2018-02-21T02:55:14.729Z,95.90
2018-02-21T02:57:42.308Z,95.90
2018-02-21T03:00:09.904Z,96.00
2018-02-21T03:02:37.485Z,96.10
2018-02-21T03:05:05.091Z,96.20
2018-02-21T03:07:33.475Z,96.30
2018-02-21T03:10:01.069Z,96.30
2018-02-21T03:12:29.412Z,96.50
2018-02-21T03:14:57.009Z,96.50
2018-02-21T03:17:24.590Z,96.60
2018-02-21T03:19:52.981Z,96.60
2018-02-21T03:22:21.330Z,96.90
2018-02-21T03:24:48.929Z,96.60
2018-02-21T03:27:16.516Z,96.60
2018-02-21T03:29:44.905Z,97.10
2018-02-21T03:32:12.484Z,97.10
2018-02-21T03:34:40.834Z,96.80
2018-02-21T03:37:08.424Z,96.80
2018-02-21T03:39:35.998Z,96.90
2018-02-21T03:42:03.598Z,96.50
2018-02-21T03:44:31.941Z,96.50
2018-02-21T03:46:59.552Z,96.50
2018-02-21T03:49:27.897Z,97.20
2018-02-21T03:51:55.488Z,97.20
2018-02-21T03:54:23.071Z,97.40
2018-02-21T03:56:50.681Z,97.80
2018-02-21T03:59:18.261Z,97.80
2018-02-21T04:01:45.860Z,97.90
2018-02-21T04:04:13.432Z,98.10
2018-02-21T04:06:41.033Z,98.30
2018-02-21T04:09:08.637Z,98.20
2018-02-21T04:11:36.248Z,98.30
2018-02-21T04:14:03.831Z,98.40
2018-02-21T04:16:31.409Z,98.50
2018-02-21T04:19:00.805Z,98.50
2018-02-21T04:21:28.393Z,98.60
2018-02-21T04:23:55.993Z,98.50
2018-02-21T04:26:24.331Z,98.20
2018-02-21T04:28:51.927Z,98.20
2018-02-21T04:31:19.508Z,98.20
2018-02-21T04:33:47.108Z,98.40
2018-02-21T04:36:15.457Z,98.60
2018-02-21T04:38:43.633Z,98.60
2018-02-21T04:41:11.214Z,98.60
2018-02-21T04:43:38.836Z,98.50
2018-02-21T04:46:06.436Z,98.50
2018-02-21T04:48:34.017Z,98.50
2018-02-21T04:51:01.616Z,98.60
2018-02-21T04:53:29.202Z,98.70
2018-02-21T04:56:02.584Z,98.70
2018-02-21T05:01:38.636Z,98.80
2018-02-21T05:04:06.996Z,98.70
2018-02-21T05:06:34.606Z,98.60
2018-02-21T05:09:02.189Z,98.50
2018-02-21T05:11:29.792Z,98.20
2018-02-21T05:13:57.364Z,97.90
2018-02-21T05:16:24.961Z,97.70
2018-02-21T05:18:52.536Z,97.50
2018-02-21T05:21:20.160Z,97.50
2018-02-21T05:23:47.740Z,97.20
2018-02-21T05:26:15.332Z,97.10
2018-02-21T05:28:42.904Z,97.10
2018-02-21T05:31:10.506Z,97.10
2018-02-21T05:33:38.104Z,97.20
2018-02-21T05:36:05.705Z,97.30
2018-02-21T05:38:33.280Z,97.00
2018-02-21T05:41:00.880Z,97.00
2018-02-21T05:43:28.515Z,97.00
2018-02-21T05:45:56.139Z,96.90
2018-02-21T05:48:24.509Z,96.70
2018-02-21T05:50:52.087Z,96.70
2018-02-21T05:53:19.686Z,96.70
2018-02-21T05:55:48.036Z,96.60
2018-02-21T05:58:15.627Z,96.60
2018-02-21T06:00:43.208Z,97.00
2018-02-21T06:03:12.308Z,96.80
2018-02-21T06:05:39.881Z,96.80
2018-02-21T06:08:07.481Z,96.80
2018-02-21T06:10:35.831Z,96.70
2018-02-21T06:13:03.441Z,96.70
2018-02-21T06:15:31.795Z,96.90
2018-02-21T06:17:59.417Z,96.80
2018-02-21T06:20:27.004Z,96.90
2018-02-21T06:22:54.635Z,96.90
2018-02-21T06:25:22.206Z,97.00
2018-02-21T06:27:49.784Z,97.00
2018-02-21T06:30:18.140Z,97.00
2018-02-21T06:32:45.732Z,97.00
2018-02-21T06:35:13.344Z,97.10
2018-02-21T06:37:40.926Z,97.30
2018-02-21T06:40:08.552Z,97.40
2018-02-21T06:42:36.131Z,97.30
2018-02-21T06:45:03.737Z,97.40
2018-02-21T06:47:31.316Z,97.40
2018-02-21T06:49:58.930Z,97.40
2018-02-21T06:52:26.516Z,97.40
2018-02-21T06:54:54.904Z,97.40
2018-02-21T06:57:22.485Z,97.20
2018-02-21T06:59:50.073Z,97.20
2018-02-21T07:02:28.191Z,97.10
2018-02-21T07:04:56.534Z,97.10
2018-02-21T07:07:24.128Z,97.10
2018-02-21T07:09:51.708Z,97.50
2018-02-21T07:12:19.324Z,97.20
2018-02-21T07:14:46.904Z,95.90
2018-02-21T07:17:14.507Z,95.40
2018-02-21T07:19:42.085Z,94.50
2018-02-21T07:22:09.688Z,93.80
2018-02-21T07:24:38.021Z,92.80
2018-02-21T07:27:05.608Z,92.80
2018-02-21T07:29:33.183Z,92.40
2018-02-21T07:32:00.785Z,92.30
2018-02-21T07:34:29.140Z,92.60
2018-02-21T07:36:56.772Z,92.50
2018-02-21T07:39:25.161Z,92.30
2018-02-21T07:41:53.461Z,91.60
2018-02-21T07:44:21.065Z,91.00
2018-02-21T07:46:48.647Z,90.50
2018-02-21T07:49:16.241Z,90.40
2018-02-21T07:51:43.841Z,90.20
2018-02-21T07:54:11.432Z,90.00
2018-02-21T07:56:39.008Z,90.30
2018-02-21T07:59:06.608Z,89.40
2018-02-21T08:01:34.183Z,90.50
2018-02-21T08:04:01.788Z,91.00
2018-02-21T08:06:30.168Z,91.80
2018-02-21T08:08:57.773Z,91.80
2018-02-21T08:11:25.348Z,91.80
2018-02-21T08:13:52.953Z,92.00
2018-02-21T08:16:20.530Z,92.60
2018-02-21T08:18:48.125Z,92.70
2018-02-21T08:21:16.469Z,93.00
2018-02-21T08:23:44.083Z,92.90
2018-02-21T08:26:11.674Z,93.20
2018-02-21T08:28:40.048Z,93.10
2018-02-21T08:31:07.622Z,93.10
2018-02-21T08:33:35.228Z,93.10
2018-02-21T08:36:02.829Z,93.10
2018-02-21T08:38:30.411Z,92.80
2018-02-21T08:40:58.005Z,92.20
2018-02-21T08:43:25.576Z,92.30
2018-02-21T08:45:53.172Z,92.00
2018-02-21T08:48:21.523Z,92.00
2018-02-21T08:50:49.132Z,92.00
2018-02-21T08:53:17.480Z,91.70
2018-02-21T08:55:45.085Z,91.80
2018-02-21T08:58:13.423Z,91.50
2018-02-21T09:00:41.041Z,91.00
2018-02-21T09:03:08.641Z,90.60
2018-02-21T09:05:36.232Z,90.90
2018-02-21T09:08:03.804Z,91.10
2018-02-21T09:10:31.439Z,90.70
2018-02-21T09:12:59.048Z,90.70
2018-02-21T09:15:26.612Z,90.20
2018-02-21T09:17:54.229Z,89.30
2018-02-21T09:20:21.807Z,88.60
2018-02-21T09:22:49.405Z,88.00
2018-02-21T09:25:17.763Z,85.90
2018-02-21T09:27:45.361Z,85.80
2018-02-21T09:30:12.928Z,85.80
2018-02-21T09:32:40.525Z,85.10
2018-02-21T09:35:08.865Z,85.30
2018-02-21T09:37:36.468Z,85.20
2018-02-21T09:40:04.812Z,82.10
2018-02-21T09:42:32.407Z,82.10
2018-02-21T09:44:59.983Z,81.80
2018-02-21T09:47:27.592Z,82.10
2018-02-21T09:49:55.926Z,82.20
2018-02-21T09:52:23.497Z,82.10
2018-02-21T09:54:51.093Z,82.60
2018-02-21T09:57:18.674Z,83.50
2018-02-21T09:59:46.272Z,83.10
2018-02-21T10:02:14.649Z,82.20
2018-02-21T10:04:43.018Z,81.00
2018-02-21T10:07:10.598Z,80.90
2018-02-21T10:09:38.192Z,80.00
2018-02-21T10:12:06.529Z,78.80
2018-02-21T10:14:34.141Z,78.80
2018-02-21T10:17:01.715Z,78.80
2018-02-21T10:19:29.309Z,76.90
2018-02-21T10:21:56.890Z,76.10
2018-02-21T10:24:24.508Z,75.60
2018-02-21T10:26:52.087Z,74.30
2018-02-21T10:29:19.673Z,73.60
2018-02-21T10:31:47.244Z,73.00
2018-02-21T10:34:14.828Z,74.50
2018-02-21T10:36:43.165Z,75.10
2018-02-21T10:39:10.790Z,75.10
2018-02-21T10:41:39.148Z,72.90
2018-02-21T10:44:06.729Z,72.80
2018-02-21T10:46:34.332Z,69.50
2018-02-21T10:49:01.917Z,72.40
2018-02-21T10:51:29.512Z,68.00
2018-02-21T10:53:57.085Z,67.80
2018-02-21T10:56:24.676Z,68.00
2018-02-21T10:58:52.255Z,68.20
2018-02-21T11:01:25.302Z,70.30
2018-02-21T11:03:52.921Z,71.60
2018-02-21T11:06:20.513Z,68.70
2018-02-21T11:08:48.084Z,68.30
2018-02-21T11:11:15.681Z,67.20
2018-02-21T11:13:44.045Z,65.00
2018-02-21T11:16:11.671Z,65.00
2018-02-21T11:18:39.260Z,64.80
2018-02-21T11:21:06.837Z,67.50
2018-02-21T11:23:34.498Z,63.20
2018-02-21T11:26:02.806Z,60.60
2018-02-21T11:28:30.405Z,60.50
2018-02-21T11:30:57.982Z,58.20
2018-02-21T11:33:25.581Z,58.60
2018-02-21T11:35:53.168Z,58.70
2018-02-21T11:38:20.762Z,62.00
2018-02-21T11:40:48.336Z,66.00
2018-02-21T11:43:15.936Z,64.60
2018-02-21T11:45:43.524Z,64.00
2018-02-21T11:48:11.893Z,63.00
2018-02-21T11:50:39.498Z,63.00
2018-02-21T11:53:07.865Z,64.30
2018-02-21T11:55:35.440Z,64.30
2018-02-21T11:58:03.037Z,63.40
2018-02-21T12:00:30.608Z,62.40
2018-02-21T12:02:58.257Z,64.30
2018-02-21T12:05:25.836Z,65.20
2018-02-21T12:07:54.177Z,67.30
2018-02-21T12:10:21.819Z,67.20
2018-02-21T12:12:49.380Z,66.10
2018-02-21T12:15:17.736Z,64.00
2018-02-21T12:17:45.308Z,64.00
2018-02-21T12:20:12.893Z,63.70
2018-02-21T12:22:40.460Z,59.80
2018-02-21T12:25:08.052Z,60.70
2018-02-21T12:27:36.396Z,60.80
2018-02-21T12:30:03.988Z,60.70
2018-02-21T12:32:34.152Z,60.40
2018-02-21T12:35:02.514Z,60.90
2018-02-21T12:37:30.105Z,60.90
2018-02-21T12:39:59.377Z,62.80
2018-02-21T12:42:26.953Z,62.70
2018-02-21T12:44:54.544Z,62.60
2018-02-21T12:47:22.121Z,62.90
2018-02-21T12:49:49.725Z,61.60
2018-02-21T12:52:17.308Z,61.50
2018-02-21T12:54:44.914Z,58.00
2018-02-21T12:57:12.482Z,59.30
2018-02-21T12:59:40.064Z,58.50
2018-02-21T13:02:07.660Z,58.60
2018-02-21T13:04:35.251Z,59.40
2018-02-21T13:07:03.608Z,60.10
2018-02-21T13:09:31.177Z,60.00
2018-02-21T13:11:58.760Z,58.20
2018-02-21T13:14:26.344Z,59.90
2018-02-21T13:16:54.721Z,60.40
2018-02-21T13:19:22.304Z,60.30
2018-02-21T13:21:49.905Z,61.80
2018-02-21T13:24:17.485Z,62.60
2018-02-21T13:26:45.088Z,63.00
2018-02-21T13:29:12.685Z,61.30
2018-02-21T13:31:40.284Z,61.00
2018-02-21T13:34:08.624Z,61.70
2018-02-21T13:36:36.212Z,61.70
2018-02-21T13:39:03.812Z,62.00
2018-02-21T13:41:32.156Z,62.80
2018-02-21T13:43:59.762Z,62.80
2018-02-21T13:46:27.337Z,63.90
2018-02-21T13:48:54.928Z,63.20
2018-02-21T13:51:23.280Z,63.40
2018-02-21T13:53:50.882Z,63.40
2018-02-21T13:56:19.237Z,64.50
2018-02-21T13:58:46.825Z,64.50
2018-02-21T14:01:14.421Z,65.30
2018-02-21T14:03:42.048Z,64.60
2018-02-21T14:06:09.642Z,64.80
2018-02-21T14:08:37.262Z,65.10
2018-02-21T14:11:04.840Z,64.10
2018-02-21T14:13:32.421Z,65.00
2018-02-21T14:16:00.024Z,66.30
2018-02-21T14:18:28.689Z,67.10
2018-02-21T14:20:59.077Z,66.20
2018-02-21T14:23:30.055Z,67.10
2018-02-21T14:25:59.155Z,67.70
2018-02-21T14:28:27.957Z,66.40
2018-02-21T14:30:55.613Z,65.60
2018-02-21T14:33:23.185Z,68.10
2018-02-21T14:35:50.777Z,68.40
2018-02-21T14:38:19.121Z,67.90
2018-02-21T14:40:46.718Z,67.90
2018-02-21T14:43:14.360Z,68.80
2018-02-21T14:45:41.977Z,68.70
2018-02-21T14:48:10.321Z,68.10
2018-02-21T14:50:37.901Z,68.10
2018-02-21T14:53:05.834Z,67.50
2018-02-21T14:55:33.412Z,68.00
2018-02-21T14:58:01.019Z,68.40
2018-02-21T15:00:28.593Z,68.30
2018-02-21T15:02:56.189Z,70.70
2018-02-21T15:05:23.796Z,71.90
2018-02-21T15:07:52.157Z,73.10
2018-02-21T15:10:19.783Z,73.10
2018-02-21T15:12:47.601Z,74.40
2018-02-21T15:15:15.179Z,75.80
2018-02-21T15:17:42.822Z,77.00
2018-02-21T15:20:10.388Z,78.10
2018-02-21T15:22:37.995Z,78.20
2018-02-21T15:25:05.573Z,79.10
2018-02-21T15:27:33.165Z,80.40
2018-02-21T15:30:13.388Z,81.60
2018-02-21T15:32:41.252Z,82.30
2018-02-21T15:35:09.816Z,81.70
2018-02-21T15:37:37.517Z,82.40
2018-02-21T15:40:05.172Z,82.60
2018-02-21T15:42:32.807Z,83.50
2018-02-21T15:45:01.202Z,84.30
2018-02-21T15:47:28.791Z,84.30
2018-02-21T15:49:57.180Z,84.80
2018-02-21T15:52:25.536Z,85.20
2018-02-21T15:54:53.124Z,85.20
2018-02-21T15:57:20.709Z,84.80
2018-02-21T15:59:49.065Z,84.80
2018-02-21T16:02:16.650Z,84.80
2018-02-21T16:04:44.220Z,85.10
2018-02-21T16:07:11.818Z,85.40
2018-02-21T16:09:40.181Z,87.30
2018-02-21T16:12:09.819Z,87.30
2018-02-21T16:14:37.393Z,88.40
2018-02-21T16:17:04.987Z,89.40
2018-02-21T16:19:33.325Z,90.80
2018-02-21T16:22:00.918Z,90.70
2018-02-21T16:24:28.504Z,91.40
2018-02-21T16:26:56.864Z,91.80
2018-02-21T16:29:24.480Z,91.80
2018-02-21T16:31:52.854Z,92.10
2018-02-21T16:34:21.199Z,92.20
2018-02-21T16:36:48.798Z,92.20
2018-02-21T16:39:16.365Z,92.30
2018-02-21T16:41:43.963Z,92.50
2018-02-21T16:44:12.315Z,93.20
2018-02-21T16:46:40.681Z,93.00
2018-02-21T16:49:08.261Z,93.00
2018-02-21T16:51:35.865Z,93.10
2018-02-21T16:54:09.006Z,93.20
2018-02-21T16:56:37.382Z,93.50
2018-02-21T16:59:05.728Z,93.80
2018-02-21T17:01:33.300Z,93.50
2018-02-21T17:04:00.887Z,93.60
2018-02-21T17:06:29.451Z,93.60
2018-02-21T17:08:57.104Z,93.80
2018-02-21T17:11:28.486Z,94.00
2018-02-21T17:13:58.683Z,94.00
2018-02-21T17:16:29.175Z,94.20
2018-02-21T17:18:57.156Z,94.40
2018-02-21T17:21:24.753Z,94.50
2018-02-21T17:23:53.138Z,94.70
2018-02-21T17:26:20.711Z,94.70
2018-02-21T17:28:48.315Z,94.90
2018-02-21T17:31:16.028Z,94.90
2018-02-21T17:33:43.628Z,95.00
2018-02-21T17:36:11.200Z,95.10
2018-02-21T17:38:38.864Z,95.20
2018-02-21T17:41:15.566Z,95.10
2018-02-21T17:43:49.164Z,94.90
2018-02-21T17:46:18.252Z,94.80
2018-02-21T17:48:45.832Z,94.50
2018-02-21T17:51:13.425Z,94.30
2018-02-21T17:53:40.992Z,94.10
2018-02-21T17:56:08.605Z,94.00
2018-02-21T17:58:36.183Z,93.90
2018-02-21T18:01:04.565Z,93.60
2018-02-21T18:03:32.135Z,93.60
2018-02-21T18:06:00.510Z,93.60
2018-02-21T18:08:29.597Z,93.60
2018-02-21T18:10:57.221Z,93.60
2018-02-21T18:13:25.567Z,93.60
2018-02-21T18:15:53.516Z,93.60
2018-02-21T18:18:21.379Z,93.90
2018-02-21T18:20:49.748Z,94.10
2018-02-21T18:23:18.099Z,94.30
2018-02-21T18:25:45.697Z,94.30
2018-02-21T18:28:13.268Z,94.40
2018-02-21T18:30:40.864Z,94.70
2018-02-21T18:33:09.209Z,95.00
2018-02-21T18:35:36.808Z,95.00
2018-02-21T18:38:05.185Z,95.60
2018-02-21T18:40:32.752Z,95.20
2018-02-21T18:43:00.350Z,95.30
2018-02-21T18:45:34.174Z,95.40
2018-02-21T18:48:08.451Z,95.60
2018-02-21T18:50:43.350Z,95.70
2018-02-21T18:53:12.114Z,96.00
2018-02-21T18:55:39.699Z,96.00
2018-02-21T18:58:13.233Z,95.90
2018-02-21T19:00:40.852Z,96.10
2018-02-21T19:03:08.442Z,96.40
2018-02-21T19:05:37.492Z,96.30
2018-02-21T19:08:05.850Z,96.70
2018-02-21T19:10:33.428Z,96.60
2018-02-21T19:13:01.030Z,96.90
2018-02-21T19:15:29.388Z,96.90
2018-02-21T19:17:57.785Z,97.10
2018-02-21T19:20:25.441Z,97.10
2018-02-21T19:22:53.056Z,96.90
2018-02-21T19:25:21.409Z,97.50
2018-02-21T19:27:49.216Z,97.50
2018-02-21T19:30:17.576Z,98.00
2018-02-21T19:32:46.130Z,98.20
2018-02-21T19:35:13.732Z,97.90
2018-02-21T19:37:41.306Z,97.90
2018-02-21T19:40:20.404Z,97.80
2018-02-21T19:42:48.017Z,97.70
2018-02-21T19:45:15.615Z,97.50
2018-02-21T19:47:43.195Z,97.80
2018-02-21T19:50:10.788Z,98.00
2018-02-21T19:52:40.144Z,98.10
2018-02-21T19:55:11.093Z,98.10
2018-02-21T19:57:38.686Z,98.10
2018-02-21T20:00:06.294Z,98.20
2018-02-21T20:02:33.920Z,98.30
2018-02-21T20:05:01.545Z,98.50
2018-02-21T20:07:29.128Z,98.60
2018-02-21T20:09:56.737Z,98.60
2018-02-21T20:12:24.333Z,98.70
2018-02-21T20:14:51.916Z,98.80
2018-02-21T20:17:19.519Z,98.80
2018-02-21T20:19:47.102Z,99.00
2018-02-21T20:22:14.722Z,99.20
2018-02-21T20:24:42.312Z,99.10
2018-02-21T20:27:11.692Z,99.30
2018-02-21T20:29:39.294Z,99.30
2018-02-21T20:32:06.909Z,99.20
2018-02-21T20:34:34.491Z,99.50
2018-02-21T20:37:02.166Z,99.50
2018-02-21T20:39:29.766Z,99.70
2018-02-21T20:41:57.362Z,99.70
2018-02-21T20:44:24.993Z,99.50
2018-02-21T20:46:52.625Z,99.30
2018-02-21T20:49:20.286Z,99.20
2018-02-21T20:51:47.841Z,99.50
2018-02-21T20:54:15.446Z,99.80
2018-02-21T20:56:43.036Z,99.80
2018-02-21T20:59:10.635Z,99.90
2018-02-21T21:01:38.220Z,99.90
2018-02-21T21:04:05.815Z,99.90
2018-02-21T21:06:33.405Z,99.90
2018-02-21T21:09:01.767Z,99.80
2018-02-21T21:11:29.357Z,99.80
2018-02-21T21:13:57.728Z,99.70
2018-02-21T21:16:25.307Z,99.70
2018-02-21T21:18:52.956Z,99.60
2018-02-21T21:21:20.544Z,99.80
2018-02-21T21:23:48.148Z,99.90
2018-02-21T21:26:16.490Z,99.90
2018-02-21T21:28:44.092Z,99.90
2018-02-21T21:31:11.826Z,99.90
2018-02-21T21:33:40.481Z,99.90
2018-02-21T21:36:08.836Z,99.90
2018-02-21T21:38:36.420Z,99.90
2018-02-21T21:41:04.039Z,99.90
2018-02-21T21:43:31.613Z,99.90
2018-02-21T21:45:59.217Z,99.90
2018-02-21T21:48:26.789Z,99.90
2018-02-21T21:50:54.397Z,99.90
2018-02-21T21:53:22.750Z,99.90
2018-02-21T21:55:50.372Z,99.90
2018-02-21T21:58:18.721Z,99.90
2018-02-21T22:00:46.370Z,99.90
2018-02-21T22:03:13.936Z,99.90
2018-02-21T22:05:41.532Z,99.90
2018-02-21T22:08:09.116Z,99.90
2018-02-21T22:10:36.708Z,99.90
2018-02-21T22:13:04.280Z,99.90
2018-02-21T22:15:31.851Z,99.90
2018-02-21T22:18:00.217Z,99.90
2018-02-21T22:20:27.804Z,99.90
2018-02-21T22:22:56.192Z,99.90
2018-02-21T22:25:23.807Z,99.90
2018-02-21T22:27:51.399Z,99.90
2018-02-21T22:30:18.979Z,99.90
2018-02-21T22:32:46.577Z,99.90
2018-02-21T22:35:14.155Z,99.90
2018-02-21T22:37:41.748Z,99.90
2018-02-21T22:40:10.109Z,99.90
2018-02-21T22:42:37.707Z,99.90
2018-02-21T22:45:06.054Z,99.90
2018-02-21T22:47:33.653Z,99.90
2018-02-21T22:50:01.241Z,99.90
2018-02-21T22:52:29.596Z,99.90
2018-02-21T22:54:57.189Z,99.90
2018-02-21T22:57:24.784Z,99.90
2018-02-21T22:59:53.144Z,99.90
2018-02-21T23:02:20.764Z,99.90
2018-02-21T23:04:48.356Z,99.90
2018-02-21T23:07:15.936Z,99.90
2018-02-21T23:09:43.540Z,99.90
2018-02-21T23:12:11.135Z,99.90
2018-02-21T23:14:38.768Z,99.90
2018-02-21T23:17:06.352Z,99.90
2018-02-21T23:19:33.933Z,99.90
2018-02-21T23:22:01.536Z,99.90
2018-02-21T23:24:29.116Z,99.90
2018-02-21T23:26:56.903Z,99.90
2018-02-21T23:29:24.484Z,99.90
2018-02-21T23:31:52.076Z,99.90
2018-02-21T23:34:19.652Z,99.90
2018-02-21T23:36:47.249Z,99.90
2018-02-21T23:39:14.824Z,99.90
2018-02-21T23:41:42.422Z,99.90
2018-02-21T23:44:10.008Z,99.90
2018-02-21T23:46:37.620Z,99.90
2018-02-21T23:49:05.200Z,99.90
2018-02-21T23:51:32.828Z,99.90
2018-02-21T23:54:00.408Z,99.90
2018-02-21T23:56:27.985Z,99.90
2018-02-21T23:58:55.598Z,99.90
